Time;durP1;ratioP1;P1;durP2;ratioP2;P2;SDS_P1;SDS_P2;PMS_P1;PMS_P2;Temp;Humidity;BMP_temperature;BMP_pressure;BME280_temperature;BME280_humidity;BME280_pressure;Samples;Min_cycle;Max_cycle;Signal;HPM_P1;HPM_P2
2022/03/31 00:00:28;;;;;;;46.90;29.33;;;;;;;;;;4970774;28;20030;-74
2022/03/31 00:02:58;;;;;;;39.85;28.75;;;;;;;;;;4973491;28;20074;-74
2022/03/31 00:05:24;;;;;;;44.92;29.63;;;;;;;;;;4975280;28;20072;-74
2022/03/31 00:08:00;;;;;;;43.58;28.90;;;;;;;;;;4972111;28;20466;-74
2022/03/31 00:10:29;;;;;;;48.80;29.10;;;;;;;;;;4973131;28;20022;-74
2022/03/31 00:12:57;;;;;;;42.35;30.55;;;;;;;;;;4973024;28;20034;-73
2022/03/31 00:15:24;;;;;;;46.25;29.17;;;;;;;;;;4977821;28;20042;-74
2022/03/31 00:17:50;;;;;;;41.28;27.45;;;;;;;;;;4975006;28;20038;-74
2022/03/31 00:20:16;;;;;;;42.20;29.35;;;;;;;;;;4985143;23;20050;-72
2022/03/31 00:22:41;;;;;;;42.10;28.60;;;;;;;;;;4986603;28;20053;-72
2022/03/31 00:25:08;;;;;;;43.30;28.58;;;;;;;;;;4988153;28;20050;-74
2022/03/31 00:27:35;;;;;;;42.03;28.65;;;;;;;;;;4982749;28;20046;-73
2022/03/31 00:30:02;;;;;;;42.92;29.08;;;;;;;;;;4983089;28;20046;-73
2022/03/31 00:32:28;;;;;;;44.45;28.80;;;;;;;;;;4982590;28;20062;-73
2022/03/31 00:34:54;;;;;;;45.42;29.08;;;;;;;;;;4977818;28;20073;-73
2022/03/31 00:37:20;;;;;;;41.60;27.85;;;;;;;;;;4970983;28;20038;-73
2022/03/31 00:39:47;;;;;;;37.63;27.35;;;;;;;;;;4981123;28;20041;-73
2022/03/31 00:42:13;;;;;;;39.33;27.33;;;;;;;;;;4976265;28;20074;-73
2022/03/31 00:44:38;;;;;;;38.72;26.98;;;;;;;;;;4969518;28;20116;-74
2022/03/31 00:47:04;;;;;;;51.30;30.27;;;;;;;;;;4978875;28;20041;-73
2022/03/31 00:49:30;;;;;;;43.25;29.50;;;;;;;;;;4979929;28;20046;-74
2022/03/31 00:51:55;;;;;;;45.20;29.20;;;;;;;;;;4979818;28;20113;-73
2022/03/31 00:54:23;;;;;;;42.55;28.98;;;;;;;;;;4981521;28;20034;-73
2022/03/31 00:56:49;;;;;;;45.00;30.95;;;;;;;;;;4965032;28;20049;-73
2022/03/31 00:59:17;;;;;;;52.92;31.98;;;;;;;;;;4964171;28;20105;-73
2022/03/31 01:01:45;;;;;;;47.40;30.13;;;;;;;;;;4971052;28;20042;-73
2022/03/31 01:04:13;;;;;;;47.95;30.27;;;;;;;;;;4974645;28;20034;-73
2022/03/31 01:06:40;;;;;;;47.10;30.52;;;;;;;;;;4974903;28;20096;-73
2022/03/31 01:09:06;;;;;;;47.00;30.00;;;;;;;;;;4962765;28;20129;-73
2022/03/31 01:11:32;;;;;;;47.28;30.05;;;;;;;;;;4979746;28;20090;-73
2022/03/31 01:13:58;;;;;;;44.47;29.75;;;;;;;;;;4977341;28;20088;-73
2022/03/31 01:16:24;;;;;;;44.63;28.90;;;;;;;;;;4979612;28;20030;-74
2022/03/31 01:18:51;;;;;;;47.17;28.88;;;;;;;;;;4976112;28;20073;-73
2022/03/31 01:21:17;;;;;;;43.67;29.88;;;;;;;;;;4975214;28;20031;-73
2022/03/31 01:23:46;;;;;;;47.10;30.48;;;;;;;;;;4984150;28;20155;-73
2022/03/31 01:26:12;;;;;;;44.50;28.80;;;;;;;;;;4982441;28;20128;-74
2022/03/31 01:28:43;;;;;;;42.90;29.75;;;;;;;;;;4983682;28;20037;-73
2022/03/31 01:31:10;;;;;;;46.47;29.38;;;;;;;;;;4978263;28;20038;-73
2022/03/31 01:33:36;;;;;;;42.70;29.08;;;;;;;;;;4978341;28;20486;-73
2022/03/31 01:36:04;;;;;;;47.03;28.45;;;;;;;;;;4974652;28;20204;-73
2022/03/31 01:38:33;;;;;;;43.13;28.70;;;;;;;;;;4983464;28;20054;-74
2022/03/31 01:40:59;;;;;;;;;;;;;;;;;;4982989;28;20034;-73
2022/03/31 01:43:26;;;;;;;40.58;27.27;;;;;;;;;;4978828;28;20503;-72
2022/03/31 01:45:53;;;;;;;41.05;28.52;;;;;;;;;;4975272;28;20046;-73
2022/03/31 01:48:19;;;;;;;44.33;29.17;;;;;;;;;;4977692;28;20121;-73
2022/03/31 01:50:46;;;;;;;41.15;28.00;;;;;;;;;;4977001;28;20054;-73
2022/03/31 01:53:14;;;;;;;36.90;27.42;;;;;;;;;;4973571;28;20035;-73
2022/03/31 01:55:40;;;;;;;39.30;27.23;;;;;;;;;;4983793;28;20072;-74
2022/03/31 01:58:07;;;;;;;40.78;27.60;;;;;;;;;;4952709;28;20038;-73
2022/03/31 02:00:32;;;;;;;40.10;26.58;;;;;;;;;;4966141;28;20050;-73
2022/03/31 02:02:59;;;;;;;35.95;27.38;;;;;;;;;;4978863;28;20034;-73
2022/03/31 02:05:25;;;;;;;33.20;26.00;;;;;;;;;;4986251;28;20041;-73
2022/03/31 02:07:57;;;;;;;38.95;27.35;;;;;;;;;;4979605;28;20034;-73
2022/03/31 02:10:26;;;;;;;34.75;26.70;;;;;;;;;;4988404;28;20056;-73
2022/03/31 02:12:53;;;;;;;;;;;;;;;;;;4989301;28;20042;-73
2022/03/31 02:15:22;;;;;;;35.97;25.90;;;;;;;;;;4966243;28;19977;-73
2022/03/31 02:17:49;;;;;;;36.33;26.27;;;;;;;;;;4985891;28;20045;-73
2022/03/31 02:20:15;;;;;;;33.65;25.60;;;;;;;;;;4990375;28;20041;-73
2022/03/31 02:22:41;;;;;;;38.60;27.05;;;;;;;;;;4994813;28;20072;-74
2022/03/31 02:25:08;;;;;;;33.97;26.73;;;;;;;;;;4972928;28;20034;-72
2022/03/31 02:27:38;;;;;;;32.83;25.27;;;;;;;;;;4980985;28;20088;-72
2022/03/31 02:30:06;;;;;;;29.55;25.38;;;;;;;;;;4990177;28;20042;-74
2022/03/31 02:32:32;;;;;;;33.22;24.92;;;;;;;;;;4974331;28;20053;-73
2022/03/31 02:34:57;;;;;;;32.53;26.15;;;;;;;;;;4980070;28;20478;-73
2022/03/31 02:37:24;;;;;;;30.45;24.92;;;;;;;;;;4985222;28;20047;-73
2022/03/31 02:39:50;;;;;;;30.13;24.90;;;;;;;;;;4972026;28;20514;-73
2022/03/31 02:42:16;;;;;;;32.60;25.20;;;;;;;;;;4984672;28;20112;-75
2022/03/31 02:44:42;;;;;;;31.67;24.90;;;;;;;;;;4979954;28;20093;-73
2022/03/31 02:47:09;;;;;;;27.50;23.85;;;;;;;;;;4980005;28;20045;-73
2022/03/31 02:49:35;;;;;;;28.30;24.98;;;;;;;;;;4980751;28;20026;-73
2022/03/31 02:52:01;;;;;;;28.17;23.67;;;;;;;;;;4982365;28;20035;-74
2022/03/31 02:57:12;;;;;;;24.98;22.45;;;;;;;;;;4983256;28;20053;-73
2022/03/31 02:59:38;;;;;;;26.38;23.05;;;;;;;;;;4986095;28;20045;-73
2022/03/31 03:02:04;;;;;;;30.13;24.75;;;;;;;;;;4963907;28;20040;-73
2022/03/31 03:04:30;;;;;;;29.15;23.83;;;;;;;;;;4988493;28;20038;-73
2022/03/31 03:06:56;;;;;;;28.45;24.98;;;;;;;;;;4982036;28;20026;-73
2022/03/31 03:09:21;;;;;;;29.98;25.05;;;;;;;;;;4985128;28;20037;-73
2022/03/31 03:11:47;;;;;;;31.88;25.15;;;;;;;;;;4973699;28;20054;-72
2022/03/31 03:14:14;;;;;;;27.77;24.75;;;;;;;;;;4968078;28;20042;-72
2022/03/31 03:16:40;;;;;;;30.73;23.75;;;;;;;;;;4980465;28;20047;-72
2022/03/31 03:19:07;;;;;;;26.65;23.85;;;;;;;;;;4984134;28;20034;-72
2022/03/31 03:21:34;;;;;;;28.60;24.25;;;;;;;;;;4980016;28;20041;-72
2022/03/31 03:24:01;;;;;;;27.75;23.80;;;;;;;;;;4973597;28;20045;-72
2022/03/31 03:26:28;;;;;;;33.40;24.45;;;;;;;;;;4982053;28;20410;-72
2022/03/31 03:28:54;;;;;;;28.13;24.40;;;;;;;;;;4985523;28;20077;-73
2022/03/31 03:31:20;;;;;;;29.70;24.98;;;;;;;;;;4981277;28;20410;-72
2022/03/31 03:33:46;;;;;;;30.67;24.73;;;;;;;;;;4985168;28;20042;-72
2022/03/31 03:36:14;;;;;;;31.60;25.08;;;;;;;;;;4982580;28;20093;-73
2022/03/31 03:38:40;;;;;;;29.23;24.50;;;;;;;;;;4960066;28;20034;-73
2022/03/31 03:41:08;;;;;;;28.73;24.15;;;;;;;;;;4969333;28;20123;-73
2022/03/31 03:43:33;;;;;;;27.85;24.08;;;;;;;;;;4987684;28;20109;-73
2022/03/31 03:45:59;;;;;;;28.80;24.60;;;;;;;;;;4948965;28;20118;-72
2022/03/31 03:48:25;;;;;;;27.52;24.67;;;;;;;;;;4961276;28;20042;-73
2022/03/31 03:50:51;;;;;;;29.55;26.00;;;;;;;;;;4977389;28;20034;-72
2022/03/31 03:53:17;;;;;;;27.67;23.67;;;;;;;;;;4980725;28;20031;-73
2022/03/31 03:55:42;;;;;;;34.47;25.88;;;;;;;;;;4987327;28;20061;-72
2022/03/31 03:58:08;;;;;;;30.85;25.50;;;;;;;;;;4978756;28;20042;-72
2022/03/31 04:00:34;;;;;;;30.80;25.25;;;;;;;;;;4981757;28;20042;-74
2022/03/31 04:03:00;;;;;;;32.83;25.50;;;;;;;;;;4968384;28;20042;-73
2022/03/31 04:05:26;;;;;;;31.83;25.48;;;;;;;;;;4975058;28;20398;-73
2022/03/31 04:07:51;;;;;;;31.23;25.15;;;;;;;;;;4979634;28;20045;-72
2022/03/31 04:10:17;;;;;;;31.67;25.50;;;;;;;;;;4985793;28;20027;-73
2022/03/31 04:12:43;;;;;;;34.58;26.42;;;;;;;;;;4959034;28;20055;-72
2022/03/31 04:15:09;;;;;;;28.52;25.38;;;;;;;;;;4973596;28;20062;-72
2022/03/31 04:17:35;;;;;;;34.95;28.17;;;;;;;;;;4977116;28;20113;-72
2022/03/31 04:20:02;;;;;;;35.97;27.88;;;;;;;;;;4980092;28;20145;-73
2022/03/31 04:22:33;;;;;;;34.00;27.20;;;;;;;;;;4970085;28;20077;-72
2022/03/31 04:24:58;;;;;;;32.53;27.63;;;;;;;;;;4984495;23;20145;-73
2022/03/31 04:27:24;;;;;;;37.22;29.08;;;;;;;;;;4954875;28;20677;-73
2022/03/31 04:29:49;;;;;;;34.33;27.05;;;;;;;;;;4967761;28;20679;-73
2022/03/31 04:32:15;;;;;;;36.67;28.77;;;;;;;;;;4969149;28;20038;-73
2022/03/31 04:34:40;;;;;;;34.00;28.75;;;;;;;;;;4966456;28;20497;-73
2022/03/31 04:37:06;;;;;;;35.60;29.88;;;;;;;;;;4949896;28;20413;-73
2022/03/31 04:39:32;;;;;;;38.22;29.67;;;;;;;;;;4967716;28;20113;-73
2022/03/31 04:41:59;;;;;;;35.05;28.13;;;;;;;;;;4968909;28;20105;-74
2022/03/31 04:44:24;;;;;;;34.95;28.17;;;;;;;;;;4969915;28;20041;-73
2022/03/31 04:46:50;;;;;;;36.53;27.20;;;;;;;;;;4968936;28;20034;-73
2022/03/31 04:49:16;;;;;;;32.30;26.65;;;;;;;;;;4949195;28;20383;-73
2022/03/31 04:51:41;;;;;;;31.73;26.95;;;;;;;;;;4969779;28;20035;-73
2022/03/31 04:54:07;;;;;;;33.13;27.27;;;;;;;;;;4972871;28;20053;-73
2022/03/31 04:56:33;;;;;;;36.28;28.52;;;;;;;;;;4958431;28;20108;-73
2022/03/31 04:58:59;;;;;;;32.80;27.05;;;;;;;;;;4967371;28;20038;-73
2022/03/31 05:01:25;;;;;;;37.28;28.33;;;;;;;;;;4967750;28;20030;-73
2022/03/31 05:03:54;;;;;;;35.42;29.20;;;;;;;;;;4969204;28;20038;-73
2022/03/31 05:06:20;;;;;;;41.35;29.77;;;;;;;;;;4963796;28;20413;-73
2022/03/31 05:08:45;;;;;;;37.33;30.40;;;;;;;;;;4968496;28;20501;-72
2022/03/31 05:11:12;;;;;;;36.92;29.13;;;;;;;;;;4961831;28;20596;-73
2022/03/31 05:13:37;;;;;;;42.33;30.38;;;;;;;;;;4946103;28;20039;-73
2022/03/31 05:16:03;;;;;;;33.33;28.10;;;;;;;;;;4967395;28;20042;-73
2022/03/31 05:18:29;;;;;;;36.92;28.83;;;;;;;;;;4972841;28;20129;-73
2022/03/31 05:20:54;;;;;;;33.45;28.33;;;;;;;;;;4973814;28;20031;-73
2022/03/31 05:23:21;;;;;;;31.40;26.17;;;;;;;;;;4968939;28;20573;-73
2022/03/31 05:25:48;;;;;;;35.40;27.63;;;;;;;;;;4966350;28;20039;-73
2022/03/31 05:28:15;;;;;;;35.00;28.02;;;;;;;;;;4964893;28;20038;-73
2022/03/31 05:30:42;;;;;;;35.38;27.90;;;;;;;;;;4952808;28;20031;-73
2022/03/31 05:33:08;;;;;;;36.30;27.75;;;;;;;;;;4973225;28;20038;-73
2022/03/31 05:35:33;;;;;;;33.65;27.23;;;;;;;;;;4960970;28;20085;-74
2022/03/31 05:37:59;;;;;;;31.52;27.95;;;;;;;;;;4972771;28;20149;-74
2022/03/31 05:40:25;;;;;;;32.78;26.85;;;;;;;;;;4952526;28;20026;-72
2022/03/31 05:42:50;;;;;;;34.65;28.48;;;;;;;;;;4971339;28;20727;-73
2022/03/31 05:45:16;;;;;;;33.20;26.98;;;;;;;;;;4970937;28;20552;-73
2022/03/31 05:47:43;;;;;;;38.55;28.70;;;;;;;;;;4972463;28;20382;-73
2022/03/31 05:50:11;;;;;;;33.53;27.75;;;;;;;;;;4957510;28;20101;-73
2022/03/31 05:52:42;;;;;;;33.67;26.58;;;;;;;;;;4965484;28;20039;-73
2022/03/31 05:55:17;;;;;;;32.92;26.88;;;;;;;;;;4967948;28;20070;-73
2022/03/31 05:57:43;;;;;;;32.08;27.52;;;;;;;;;;4970707;28;20150;-73
2022/03/31 06:00:12;;;;;;;31.73;26.52;;;;;;;;;;4937271;28;20545;-73
2022/03/31 06:02:38;;;;;;;33.17;26.60;;;;;;;;;;4951461;28;20050;-73
2022/03/31 06:05:04;;;;;;;31.33;26.35;;;;;;;;;;4959429;28;20042;-73
2022/03/31 06:07:30;;;;;;;33.20;26.75;;;;;;;;;;4957810;28;20117;-73
2022/03/31 06:09:56;;;;;;;29.75;26.58;;;;;;;;;;4973385;28;20126;-73
2022/03/31 06:12:21;;;;;;;29.65;26.15;;;;;;;;;;4954885;28;20414;-73
2022/03/31 06:14:47;;;;;;;30.52;26.95;;;;;;;;;;4967125;28;20038;-73
2022/03/31 06:17:12;;;;;;;37.03;29.73;;;;;;;;;;4970126;28;20031;-73
2022/03/31 06:19:38;;;;;;;30.00;26.80;;;;;;;;;;4971365;28;20125;-73
2022/03/31 06:22:04;;;;;;;31.98;26.60;;;;;;;;;;4969904;28;20038;-73
2022/03/31 06:24:30;;;;;;;32.70;26.08;;;;;;;;;;4973407;28;20478;-73
2022/03/31 06:27:00;;;;;;;31.00;26.95;;;;;;;;;;4952950;28;20478;-73
2022/03/31 06:29:26;;;;;;;32.67;27.55;;;;;;;;;;4972203;28;20043;-73
2022/03/31 06:31:53;;;;;;;34.85;27.23;;;;;;;;;;4937440;28;20035;-73
2022/03/31 06:34:20;;;;;;;30.73;27.45;;;;;;;;;;4971252;28;20109;-73
2022/03/31 06:36:46;;;;;;;34.28;27.42;;;;;;;;;;4970145;28;20126;-73
2022/03/31 06:39:13;;;;;;;35.47;26.02;;;;;;;;;;4971787;28;20222;-72
2022/03/31 06:41:39;;;;;;;34.88;26.40;;;;;;;;;;4967917;28;20485;-73
2022/03/31 06:44:12;;;;;;;33.47;27.75;;;;;;;;;;4957565;28;20486;-73
2022/03/31 06:46:40;;;;;;;30.80;27.33;;;;;;;;;;4974518;28;20628;-73
2022/03/31 06:49:06;;;;;;;31.00;26.08;;;;;;;;;;4966641;28;20027;-73
2022/03/31 06:51:32;;;;;;;30.73;26.40;;;;;;;;;;4968757;28;20053;-73
2022/03/31 06:53:58;;;;;;;33.28;27.63;;;;;;;;;;4968479;28;20043;-73
2022/03/31 06:56:27;;;;;;;32.03;26.75;;;;;;;;;;4965490;28;20552;-73
2022/03/31 06:58:54;;;;;;;32.72;25.98;;;;;;;;;;4969541;28;20088;-73
2022/03/31 07:01:20;;;;;;;31.20;25.67;;;;;;;;;;4968015;28;20430;-73
2022/03/31 07:03:45;;;;;;;30.38;26.95;;;;;;;;;;4970245;28;20035;-73
2022/03/31 07:06:11;;;;;;;29.58;25.50;;;;;;;;;;4968294;28;20041;-73
2022/03/31 07:08:37;;;;;;;29.77;26.42;;;;;;;;;;4969944;28;20030;-73
2022/03/31 07:11:03;;;;;;;28.50;24.27;;;;;;;;;;4952433;28;20509;-73
2022/03/31 07:13:29;;;;;;;36.45;26.88;;;;;;;;;;4951974;28;20046;-73
2022/03/31 07:15:55;;;;;;;29.85;26.52;;;;;;;;;;4949995;28;20035;-73
2022/03/31 07:18:21;;;;;;;29.42;26.35;;;;;;;;;;4978809;28;20084;-73
2022/03/31 07:20:47;;;;;;;29.35;26.25;;;;;;;;;;4974005;28;20077;-73
2022/03/31 07:23:12;;;;;;;31.63;27.10;;;;;;;;;;4971208;28;20038;-73
2022/03/31 07:25:38;;;;;;;31.30;26.60;;;;;;;;;;4966948;28;20036;-73
2022/03/31 07:28:04;;;;;;;29.27;25.80;;;;;;;;;;4957388;28;20145;-73
2022/03/31 07:30:30;;;;;;;30.27;25.88;;;;;;;;;;4970435;28;20038;-73
2022/03/31 07:33:01;;;;;;;29.98;25.83;;;;;;;;;;4968175;28;20045;-73
2022/03/31 07:35:29;;;;;;;30.60;26.13;;;;;;;;;;4949320;28;20043;-73
2022/03/31 07:37:56;;;;;;;31.30;26.10;;;;;;;;;;4968863;28;20039;-74
2022/03/31 07:40:23;;;;;;;30.75;26.23;;;;;;;;;;4964777;28;20074;-73
2022/03/31 07:42:50;;;;;;;29.95;26.73;;;;;;;;;;4967182;28;20045;-73
2022/03/31 07:45:16;;;;;;;31.85;26.08;;;;;;;;;;4971098;28;20027;-74
2022/03/31 07:47:42;;;;;;;28.60;25.70;;;;;;;;;;4961404;28;20043;-73
2022/03/31 07:50:10;;;;;;;28.33;25.33;;;;;;;;;;4949887;28;20169;-73
2022/03/31 07:52:37;;;;;;;28.77;25.42;;;;;;;;;;4952291;28;20069;-73
2022/03/31 07:55:04;;;;;;;30.20;26.02;;;;;;;;;;4966884;28;20118;-73
2022/03/31 07:57:30;;;;;;;29.35;26.23;;;;;;;;;;4968304;28;20035;-73
2022/03/31 07:59:56;;;;;;;28.02;25.13;;;;;;;;;;4975482;28;20450;-73
2022/03/31 08:02:24;;;;;;;29.30;26.05;;;;;;;;;;4974753;28;20415;-73
2022/03/31 08:04:50;;;;;;;29.10;25.50;;;;;;;;;;4970531;28;20034;-73
2022/03/31 08:07:16;;;;;;;29.02;25.60;;;;;;;;;;4968512;28;20035;-73
2022/03/31 08:09:42;;;;;;;40.97;30.67;;;;;;;;;;4969748;28;20454;-73
2022/03/31 08:12:08;;;;;;;32.47;28.27;;;;;;;;;;4977902;28;20035;-73
2022/03/31 08:14:34;;;;;;;33.80;27.48;;;;;;;;;;4968738;28;20042;-73
2022/03/31 08:17:00;;;;;;;35.03;29.90;;;;;;;;;;4936102;28;20610;-73
2022/03/31 08:19:27;;;;;;;31.50;27.95;;;;;;;;;;4951975;28;20051;-73
2022/03/31 08:21:53;;;;;;;34.05;27.17;;;;;;;;;;4963313;28;20402;-73
2022/03/31 08:24:18;;;;;;;36.03;28.58;;;;;;;;;;4955511;28;20031;-73
2022/03/31 08:26:46;;;;;;;32.28;27.60;;;;;;;;;;4950702;28;20037;-73
2022/03/31 08:29:12;;;;;;;31.63;27.83;;;;;;;;;;4950904;28;20466;-73
2022/03/31 08:31:38;;;;;;;30.98;25.65;;;;;;;;;;4970110;28;20073;-72
2022/03/31 08:34:05;;;;;;;31.80;26.73;;;;;;;;;;4937330;28;20537;-73
2022/03/31 08:36:31;;;;;;;34.65;27.33;;;;;;;;;;4968785;28;20459;-72
2022/03/31 08:38:58;;;;;;;32.65;25.35;;;;;;;;;;4967946;28;20486;-73
2022/03/31 08:41:26;;;;;;;33.67;26.08;;;;;;;;;;4973466;28;20034;-72
2022/03/31 08:43:51;;;;;;;32.42;25.23;;;;;;;;;;4952734;28;20909;-73
2022/03/31 08:46:18;;;;;;;33.53;27.70;;;;;;;;;;4971220;28;20047;-73
2022/03/31 08:48:44;;;;;;;31.05;26.23;;;;;;;;;;4968868;28;20050;-73
2022/03/31 08:51:10;;;;;;;34.75;26.20;;;;;;;;;;4973083;28;20139;-72
2022/03/31 08:53:36;;;;;;;33.40;27.20;;;;;;;;;;4951544;28;20142;-73
2022/03/31 08:56:03;;;;;;;32.90;27.38;;;;;;;;;;4967296;28;20039;-73
2022/03/31 08:58:29;;;;;;;31.70;27.05;;;;;;;;;;4966219;28;20031;-72
2022/03/31 09:00:55;;;;;;;37.67;27.25;;;;;;;;;;4964102;28;20045;-72
2022/03/31 09:03:32;;;;;;;33.65;26.98;;;;;;;;;;4961770;28;20154;-71
2022/03/31 09:05:58;;;;;;;36.22;27.20;;;;;;;;;;4961655;28;20054;-71
2022/03/31 09:08:23;;;;;;;29.83;26.48;;;;;;;;;;4964267;28;20034;-71
2022/03/31 09:10:54;;;;;;;32.20;27.88;;;;;;;;;;4966024;28;20661;-72
2022/03/31 09:13:31;;;;;;;31.02;26.00;;;;;;;;;;4966188;28;20070;-71
2022/03/31 09:16:06;;;;;;;32.25;26.67;;;;;;;;;;4965406;28;20031;-72
2022/03/31 09:18:33;;;;;;;33.63;27.58;;;;;;;;;;4967759;28;20031;-72
2022/03/31 09:21:05;;;;;;;30.08;26.70;;;;;;;;;;4965656;28;20037;-72
2022/03/31 09:23:41;;;;;;;34.95;27.83;;;;;;;;;;4948936;28;20034;-72
2022/03/31 09:26:11;;;;;;;35.65;26.75;;;;;;;;;;4965383;28;20061;-73
2022/03/31 09:28:37;;;;;;;30.95;25.58;;;;;;;;;;4968329;28;20043;-72
2022/03/31 09:31:04;;;;;;;34.47;27.85;;;;;;;;;;4932566;28;20158;-73
2022/03/31 09:33:37;;;;;;;32.90;26.10;;;;;;;;;;4969027;28;20050;-72
2022/03/31 09:36:02;;;;;;;39.20;27.05;;;;;;;;;;4966422;28;20046;-72
2022/03/31 09:38:29;;;;;;;36.85;28.73;;;;;;;;;;4951248;28;20042;-72
2022/03/31 09:40:55;;;;;;;33.78;27.08;;;;;;;;;;4968437;28;20027;-72
2022/03/31 09:43:21;;;;;;;38.60;28.42;;;;;;;;;;4968255;28;20031;-72
2022/03/31 09:45:46;;;;;;;33.38;26.35;;;;;;;;;;4972132;28;20031;-72
2022/03/31 09:48:40;;;;;;;36.22;28.27;;;;;;;;;;4949810;28;20038;-73
2022/03/31 09:51:05;;;;;;;36.20;26.58;;;;;;;;;;4969274;28;20043;-72
2022/03/31 09:53:32;;;;;;;40.78;28.67;;;;;;;;;;4950426;28;20138;-72
2022/03/31 09:56:00;;;;;;;39.00;27.90;;;;;;;;;;4950648;28;20080;-72
2022/03/31 09:58:25;;;;;;;34.13;26.73;;;;;;;;;;4965774;28;20128;-72
2022/03/31 10:00:51;;;;;;;35.97;27.05;;;;;;;;;;4950951;28;20441;-72
2022/03/31 10:03:17;;;;;;;34.25;25.48;;;;;;;;;;4967588;28;20102;-72
2022/03/31 10:05:45;;;;;;;38.63;27.95;;;;;;;;;;4967327;28;20425;-72
2022/03/31 10:08:12;;;;;;;35.95;27.52;;;;;;;;;;4949435;28;20478;-72
2022/03/31 10:10:39;;;;;;;34.22;26.05;;;;;;;;;;4968502;28;20079;-72
2022/03/31 10:13:24;;;;;;;38.08;27.80;;;;;;;;;;4961421;28;20053;-72
2022/03/31 10:15:59;;;;;;;35.42;26.23;;;;;;;;;;4962354;28;20038;-72
2022/03/31 10:18:25;;;;;;;33.92;26.42;;;;;;;;;;4953583;28;20042;-72
2022/03/31 10:20:54;;;;;;;34.38;27.08;;;;;;;;;;4952779;28;20065;-72
2022/03/31 10:26:04;;;;;;;41.97;29.73;;;;;;;;;;4990470;23;20050;-71
2022/03/31 10:28:30;;;;;;;39.70;27.85;;;;;;;;;;4975515;28;20042;-72
2022/03/31 10:31:01;;;;;;;38.72;28.17;;;;;;;;;;5001963;23;20066;-74
2022/03/31 10:33:42;;;;;;;35.45;26.63;;;;;;;;;;4990266;28;20501;-74
2022/03/31 10:36:13;;;;;;;35.17;25.80;;;;;;;;;;4982457;28;20129;-71
2022/03/31 10:38:51;;;;;;;36.38;26.27;;;;;;;;;;4993239;28;20089;-74
2022/03/31 10:41:17;;;;;;;37.58;27.02;;;;;;;;;;4976326;28;20031;-73
2022/03/31 10:43:48;;;;;;;40.88;28.00;;;;;;;;;;4956760;28;20065;-73
2022/03/31 10:46:19;;;;;;;35.97;26.38;;;;;;;;;;4953439;28;20114;-73
2022/03/31 10:48:57;;;;;;;37.92;27.20;;;;;;;;;;4970177;28;20030;-73
2022/03/31 10:51:32;;;;;;;38.30;27.45;;;;;;;;;;4968920;28;20251;-73
2022/03/31 10:53:58;;;;;;;33.80;24.52;;;;;;;;;;4967487;28;20082;-73
2022/03/31 10:56:26;;;;;;;34.58;25.92;;;;;;;;;;4967910;28;20039;-73
2022/03/31 10:58:53;;;;;;;34.35;26.35;;;;;;;;;;4972942;28;20045;-73
2022/03/31 11:01:21;;;;;;;33.50;25.85;;;;;;;;;;4954540;28;20034;-73
2022/03/31 11:03:47;;;;;;;32.58;26.60;;;;;;;;;;4975867;28;20034;-73
2022/03/31 11:06:14;;;;;;;31.50;26.50;;;;;;;;;;4976395;28;20184;-73
2022/03/31 11:08:46;;;;;;;33.63;24.85;;;;;;;;;;4971495;28;20114;-73
2022/03/31 11:11:28;;;;;;;29.98;25.35;;;;;;;;;;4970561;28;20030;-73
2022/03/31 11:13:55;;;;;;;29.88;25.33;;;;;;;;;;4979381;28;20042;-74
2022/03/31 11:16:22;;;;;;;34.70;27.83;;;;;;;;;;4969980;28;20038;-72
2022/03/31 11:18:56;;;;;;;38.80;27.35;;;;;;;;;;4952881;28;20553;-72
2022/03/31 11:21:23;;;;;;;37.13;25.45;;;;;;;;;;4971486;28;20031;-72
2022/03/31 11:23:50;;;;;;;30.45;24.92;;;;;;;;;;4972458;28;20035;-72
2022/03/31 11:26:27;;;;;;;40.40;27.45;;;;;;;;;;4982311;28;20030;-72
2022/03/31 11:28:53;;;;;;;38.90;28.08;;;;;;;;;;4969612;28;20105;-73
2022/03/31 11:31:20;;;;;;;32.63;25.77;;;;;;;;;;4968098;28;20506;-74
2022/03/31 11:33:47;;;;;;;34.08;26.48;;;;;;;;;;4970292;28;20146;-73
2022/03/31 11:36:12;;;;;;;36.28;25.90;;;;;;;;;;4969289;28;20548;-73
2022/03/31 11:38:38;;;;;;;32.17;25.52;;;;;;;;;;4968328;28;20058;-73
2022/03/31 11:41:04;;;;;;;32.70;26.05;;;;;;;;;;4968597;28;20031;-73
2022/03/31 11:43:32;;;;;;;30.13;25.38;;;;;;;;;;4969608;28;20081;-72
2022/03/31 11:45:58;;;;;;;33.72;27.10;;;;;;;;;;4966712;28;20027;-72
2022/03/31 11:48:32;;;;;;;31.98;25.85;;;;;;;;;;4965701;28;20105;-71
2022/03/31 11:51:00;;;;;;;30.58;24.77;;;;;;;;;;4968536;28;20049;-71
2022/03/31 11:53:28;;;;;;;31.70;25.67;;;;;;;;;;4968355;28;20093;-71
2022/03/31 11:56:01;;;;;;;32.90;26.90;;;;;;;;;;4967654;28;20034;-71
2022/03/31 11:58:27;;;;;;;30.48;25.83;;;;;;;;;;4968390;28;20042;-71
2022/03/31 12:00:54;;;;;;;30.42;24.83;;;;;;;;;;4973393;28;20509;-73
2022/03/31 12:03:19;;;;;;;29.85;25.83;;;;;;;;;;4971749;28;20031;-72
2022/03/31 12:05:59;;;;;;;29.15;24.88;;;;;;;;;;4972266;28;20102;-72
2022/03/31 12:08:25;;;;;;;;;;;;;;;;;;4992364;23;20041;-69
2022/03/31 12:10:51;;;;;;;33.40;25.83;;;;;;;;;;4987464;28;20380;-68
2022/03/31 12:13:18;;;;;;;30.42;26.25;;;;;;;;;;4988108;28;20077;-71
2022/03/31 12:15:44;;;;;;;30.42;25.80;;;;;;;;;;4952510;28;20054;-69
2022/03/31 12:18:18;;;;;;;30.52;26.08;;;;;;;;;;4967459;28;20027;-71
2022/03/31 12:20:46;;;;;;;29.85;26.02;;;;;;;;;;4971719;28;20451;-70
2022/03/31 12:23:18;;;;;;;28.48;24.80;;;;;;;;;;4967607;28;20113;-70
2022/03/31 12:25:44;;;;;;;29.48;25.23;;;;;;;;;;4966807;28;20122;-71
2022/03/31 12:28:10;;;;;;;27.83;24.85;;;;;;;;;;4972957;28;20478;-71
2022/03/31 12:30:48;;;;;;;29.05;25.38;;;;;;;;;;4968645;28;20046;-71
2022/03/31 12:33:22;;;;;;;29.75;23.95;;;;;;;;;;4950244;28;20039;-70
2022/03/31 12:36:00;;;;;;;29.08;24.83;;;;;;;;;;4967337;28;20409;-70
2022/03/31 12:38:46;;;;;;;27.08;24.20;;;;;;;;;;4969483;28;20043;-71
2022/03/31 12:41:24;;;;;;;30.35;26.23;;;;;;;;;;4967452;28;20391;-71
2022/03/31 12:44:16;;;;;;;28.40;24.83;;;;;;;;;;4969945;28;20081;-69
2022/03/31 12:46:52;;;;;;;29.65;26.30;;;;;;;;;;4969740;28;20038;-71
2022/03/31 12:49:20;;;;;;;29.70;25.90;;;;;;;;;;4951011;28;20109;-70
2022/03/31 12:51:53;;;;;;;30.65;26.58;;;;;;;;;;4965577;28;20501;-70
2022/03/31 12:54:24;;;;;;;30.13;26.27;;;;;;;;;;4969410;28;20510;-69
2022/03/31 12:56:52;;;;;;;30.25;25.75;;;;;;;;;;4950771;28;20043;-70
2022/03/31 12:59:24;;;;;;;28.70;24.65;;;;;;;;;;4968141;28;20035;-69
2022/03/31 13:01:58;;;;;;;26.73;23.77;;;;;;;;;;4966953;28;20027;-70
2022/03/31 13:04:24;;;;;;;28.42;24.52;;;;;;;;;;4971446;28;20036;-69
2022/03/31 13:06:50;;;;;;;27.25;24.35;;;;;;;;;;4965697;28;20140;-70
2022/03/31 13:09:16;;;;;;;29.23;24.52;;;;;;;;;;4974695;28;20035;-69
2022/03/31 13:11:43;;;;;;;27.63;24.67;;;;;;;;;;4967658;28;20042;-70
2022/03/31 13:14:12;;;;;;;28.35;24.40;;;;;;;;;;4966416;28;20129;-69
2022/03/31 13:16:40;;;;;;;26.70;23.48;;;;;;;;;;4964561;28;20050;-70
2022/03/31 13:19:07;;;;;;;28.25;23.95;;;;;;;;;;4970416;28;20042;-70
2022/03/31 13:21:32;;;;;;;28.20;23.90;;;;;;;;;;4970656;28;20038;-70
2022/03/31 13:23:59;;;;;;;25.65;22.95;;;;;;;;;;4950636;28;20047;-72
2022/03/31 13:26:25;;;;;;;26.73;23.98;;;;;;;;;;4967470;28;20074;-70
2022/03/31 13:28:50;;;;;;;30.05;23.75;;;;;;;;;;4966928;28;20061;-71
2022/03/31 13:31:16;;;;;;;30.02;26.70;;;;;;;;;;4963068;28;20082;-70
2022/03/31 13:33:42;;;;;;;30.20;26.13;;;;;;;;;;4969245;28;20046;-69
2022/03/31 13:36:08;;;;;;;30.95;25.35;;;;;;;;;;4968971;28;20110;-69
2022/03/31 13:38:36;;;;;;;29.45;26.23;;;;;;;;;;4963848;28;20514;-71
2022/03/31 13:41:02;;;;;;;30.88;26.58;;;;;;;;;;4946929;28;20148;-70
2022/03/31 13:43:28;;;;;;;28.75;25.67;;;;;;;;;;4965892;28;20089;-70
2022/03/31 13:45:55;;;;;;;29.35;25.95;;;;;;;;;;4965189;28;20379;-70
2022/03/31 13:48:21;;;;;;;27.00;24.05;;;;;;;;;;4965431;28;20038;-69
2022/03/31 13:50:47;;;;;;;28.73;24.13;;;;;;;;;;4967839;28;20506;-70
2022/03/31 13:55:57;;;;;;;27.85;24.38;;;;;;;;;;4931601;28;20593;-69
2022/03/31 14:01:08;;;;;;;27.13;23.83;;;;;;;;;;4970220;28;20031;-70
2022/03/31 14:03:35;;;;;;;28.80;25.45;;;;;;;;;;4952962;28;20043;-70
2022/03/31 14:06:01;;;;;;;29.08;25.42;;;;;;;;;;4954713;28;20043;-69
2022/03/31 14:08:26;;;;;;;30.30;26.60;;;;;;;;;;4974226;28;20798;-71
2022/03/31 14:10:52;;;;;;;29.98;26.27;;;;;;;;;;4968900;28;20522;-69
2022/03/31 14:13:18;;;;;;;31.63;26.70;;;;;;;;;;4969022;28;20031;-69
2022/03/31 14:15:44;;;;;;;30.83;25.85;;;;;;;;;;4968819;28;20045;-69
2022/03/31 14:18:09;;;;;;;33.78;28.65;;;;;;;;;;4973369;28;20085;-69
2022/03/31 14:20:36;;;;;;;31.67;26.95;;;;;;;;;;4968473;28;20421;-69
2022/03/31 14:23:03;;;;;;;39.25;30.58;;;;;;;;;;4967770;28;20034;-68
2022/03/31 14:25:29;;;;;;;32.50;28.33;;;;;;;;;;4952293;28;20051;-69
2022/03/31 14:27:55;;;;;;;28.90;25.95;;;;;;;;;;4968744;28;20039;-69
2022/03/31 14:30:21;;;;;;;28.92;25.83;;;;;;;;;;4970143;28;20045;-68